createdAt,value
2019-03-25T00:01:35.962Z,3.33
2019-03-25T00:04:06.222Z,3.33
2019-03-25T00:06:42.087Z,3.33
2019-03-25T00:09:14.783Z,3.40
2019-03-25T00:11:45.076Z,2.93
2019-03-25T00:14:14.790Z,2.77
2019-03-25T00:16:45.408Z,3.20
2019-03-25T00:19:15.665Z,3.57
2019-03-25T00:21:45.745Z,3.30
2019-03-25T00:24:17.847Z,3.03
2019-03-25T00:26:47.588Z,3.67
2019-03-25T00:29:20.724Z,2.90
2019-03-25T00:31:51.915Z,3.20
2019-03-25T00:34:23.197Z,3.53
2019-03-25T00:36:58.606Z,3.30
2019-03-25T00:39:31.809Z,3.57
2019-03-25T00:42:05.149Z,3.20
2019-03-25T00:44:35.686Z,3.13
2019-03-25T00:47:06.883Z,3.37
2019-03-25T00:49:37.233Z,3.20
2019-03-25T00:52:07.463Z,3.10
2019-03-25T00:54:49.374Z,3.40
2019-03-25T00:57:15.226Z,3.53
2019-03-25T00:59:48.925Z,3.53
2019-03-25T01:02:20.191Z,3.00
2019-03-25T01:04:54.915Z,3.50
2019-03-25T01:07:29.326Z,3.70
2019-03-25T01:10:07.542Z,3.30
2019-03-25T01:12:38.710Z,4.00
2019-03-25T01:15:09.963Z,3.50
2019-03-25T01:17:42.203Z,3.40
2019-03-25T01:20:12.923Z,3.77
2019-03-25T01:22:44.020Z,3.10
2019-03-25T01:25:15.067Z,3.80
2019-03-25T01:27:45.850Z,4.00
2019-03-25T01:30:16.857Z,3.90
2019-03-25T01:32:48.639Z,4.03
2019-03-25T01:35:18.639Z,3.80
2019-03-25T01:37:51.236Z,4.23
2019-03-25T01:40:22.026Z,4.20
2019-03-25T01:42:51.829Z,4.27
2019-03-25T01:45:22.435Z,3.93
2019-03-25T01:47:53.997Z,3.70
2019-03-25T01:50:28.638Z,4.40
2019-03-25T01:53:04.105Z,3.83
2019-03-25T01:55:35.834Z,4.43
2019-03-25T01:58:05.589Z,3.87
2019-03-25T02:00:37.709Z,3.57
2019-03-25T02:03:07.931Z,4.23
2019-03-25T02:05:38.812Z,4.47
2019-03-25T02:08:08.519Z,4.70
2019-03-25T02:10:43.924Z,4.27
2019-03-25T02:13:14.199Z,3.97
2019-03-25T02:15:45.415Z,4.10
2019-03-25T02:18:15.490Z,3.83
2019-03-25T02:20:45.892Z,3.60
2019-03-25T02:23:16.760Z,4.10
2019-03-25T02:25:49.393Z,4.10
2019-03-25T02:28:20.644Z,4.13
2019-03-25T02:30:52.595Z,3.70
2019-03-25T02:33:24.692Z,4.17
2019-03-25T02:35:54.465Z,4.10
2019-03-25T02:38:24.802Z,4.27
2019-03-25T02:40:54.909Z,4.20
2019-03-25T02:43:26.531Z,4.10
2019-03-25T02:45:56.955Z,4.00
2019-03-25T02:48:27.303Z,3.83
2019-03-25T02:50:57.017Z,4.07
2019-03-25T02:53:27.153Z,4.30
2019-03-25T02:55:58.013Z,4.70
2019-03-25T02:58:28.835Z,5.33
2019-03-25T03:00:59.625Z,4.87
2019-03-25T03:03:29.968Z,5.60
2019-03-25T03:05:59.965Z,5.60
2019-03-25T03:08:32.970Z,5.53
2019-03-25T03:11:07.851Z,5.37
2019-03-25T03:13:38.491Z,6.07
2019-03-25T03:16:08.762Z,5.53
2019-03-25T03:18:39.132Z,4.93
2019-03-25T03:21:08.842Z,6.47
2019-03-25T03:23:39.742Z,6.07
2019-03-25T03:26:10.612Z,6.03
2019-03-25T03:28:44.806Z,6.13
2019-03-25T03:31:16.380Z,6.50
2019-03-25T03:33:47.745Z,6.53
2019-03-25T03:36:17.749Z,7.07
2019-03-25T03:38:47.779Z,7.00
2019-03-25T03:41:21.206Z,6.03
2019-03-25T03:43:51.757Z,5.60
2019-03-25T03:46:22.478Z,6.13
2019-03-25T03:48:55.129Z,6.20
2019-03-25T03:51:26.017Z,7.00
2019-03-25T03:53:57.874Z,6.23
2019-03-25T03:56:28.959Z,5.93
2019-03-25T03:59:01.236Z,6.50
2019-03-25T04:01:32.060Z,6.07
2019-03-25T04:04:03.125Z,6.33
2019-03-25T04:06:33.473Z,6.87
2019-03-25T04:09:06.019Z,7.37
2019-03-25T04:11:36.659Z,6.47
2019-03-25T04:14:06.791Z,7.33
2019-03-25T04:16:36.507Z,6.40
2019-03-25T04:19:08.426Z,6.53
2019-03-25T04:21:38.515Z,7.17
2019-03-25T04:24:10.544Z,6.73
2019-03-25T04:26:41.051Z,7.07
2019-03-25T04:29:11.589Z,7.30
2019-03-25T04:31:42.645Z,7.17
2019-03-25T04:34:13.099Z,7.47
2019-03-25T04:36:44.417Z,7.03
2019-03-25T04:39:15.452Z,7.13
2019-03-25T04:41:49.051Z,6.93
2019-03-25T04:44:21.173Z,6.53
2019-03-25T04:46:51.263Z,7.10
2019-03-25T04:49:22.054Z,6.07
2019-03-25T04:51:56.413Z,6.60
2019-03-25T04:54:26.504Z,6.67
2019-03-25T04:56:56.599Z,6.80
2019-03-25T04:59:27.490Z,6.83
2019-03-25T05:01:57.603Z,6.73
2019-03-25T05:04:28.164Z,7.80
2019-03-25T05:06:59.353Z,6.60
2019-03-25T05:09:32.381Z,6.57
2019-03-25T05:12:02.983Z,7.53
2019-03-25T05:14:33.403Z,7.50
2019-03-25T05:17:07.733Z,7.03
2019-03-25T05:19:38.346Z,7.23
2019-03-25T05:22:11.064Z,7.13
2019-03-25T05:24:40.811Z,7.23
2019-03-25T05:27:15.589Z,7.30
2019-03-25T05:29:51.883Z,5.83
2019-03-25T05:32:26.773Z,6.93
2019-03-25T05:34:58.571Z,6.90
2019-03-25T05:37:28.884Z,6.53
2019-03-25T05:39:58.897Z,6.47
2019-03-25T05:42:30.449Z,7.43
2019-03-25T05:45:02.577Z,6.90
2019-03-25T05:47:32.666Z,7.00
2019-03-25T05:50:05.306Z,7.23
2019-03-25T05:52:38.054Z,6.43
2019-03-25T05:55:08.725Z,7.30
2019-03-25T05:57:42.186Z,6.90
2019-03-25T06:00:14.425Z,6.67
2019-03-25T06:02:45.629Z,6.57
2019-03-25T06:05:15.868Z,7.73
2019-03-25T06:07:45.878Z,6.90
2019-03-25T06:10:17.777Z,7.63
2019-03-25T06:12:48.784Z,7.73
2019-03-25T06:15:20.599Z,7.73
2019-03-25T06:17:53.062Z,7.23
2019-03-25T06:20:23.033Z,7.80
2019-03-25T06:22:53.559Z,7.10
2019-03-25T06:25:23.996Z,7.67
2019-03-25T06:27:55.390Z,8.00
2019-03-25T06:30:25.832Z,7.40
2019-03-25T06:32:57.869Z,7.57
2019-03-25T06:35:29.656Z,7.50
2019-03-25T06:37:59.670Z,7.73
2019-03-25T06:40:34.659Z,7.93
2019-03-25T06:43:05.921Z,7.73
2019-03-25T06:45:36.376Z,8.87
2019-03-25T06:48:08.198Z,9.20
2019-03-25T06:50:38.542Z,8.40
2019-03-25T06:53:09.444Z,8.40
2019-03-25T06:55:39.908Z,9.20
2019-03-25T06:58:12.966Z,8.93
2019-03-25T07:00:43.890Z,9.33
2019-03-25T07:03:14.136Z,9.37
2019-03-25T07:05:45.515Z,9.30
2019-03-25T07:08:17.537Z,10.33
2019-03-25T07:10:50.636Z,9.93
2019-03-25T07:13:21.203Z,10.37
2019-03-25T07:15:55.412Z,9.93
2019-03-25T07:18:27.824Z,14.73
2019-03-25T07:21:01.548Z,13.03
2019-03-25T07:23:34.667Z,11.73
2019-03-25T07:26:26.267Z,10.87
2019-03-25T07:28:57.664Z,10.40
2019-03-25T07:31:27.460Z,10.07
2019-03-25T07:33:57.228Z,10.43
2019-03-25T07:36:27.582Z,9.70
2019-03-25T07:39:00.130Z,10.87
2019-03-25T07:41:30.801Z,10.67
2019-03-25T07:44:01.535Z,10.33
2019-03-25T07:46:31.545Z,10.57
2019-03-25T07:49:01.862Z,11.30
2019-03-25T07:51:32.264Z,11.33
2019-03-25T07:54:02.953Z,12.40
2019-03-25T07:56:34.316Z,11.13
2019-03-25T07:59:07.908Z,12.13
2019-03-25T08:01:39.098Z,12.00
2019-03-25T08:04:10.542Z,11.90
2019-03-25T08:06:41.052Z,10.30
2019-03-25T08:09:12.662Z,11.20
2019-03-25T08:11:44.928Z,12.53
2019-03-25T08:14:15.539Z,11.00
2019-03-25T08:16:47.264Z,11.03
2019-03-25T08:19:19.723Z,10.60
2019-03-25T08:21:50.611Z,10.07
2019-03-25T08:24:22.370Z,8.57
2019-03-25T08:26:52.954Z,6.60
2019-03-25T08:29:22.694Z,4.50
2019-03-25T08:31:53.357Z,3.67
2019-03-25T08:34:23.571Z,4.63
2019-03-25T08:36:54.276Z,3.30
2019-03-25T08:39:24.355Z,4.33
2019-03-25T08:41:54.105Z,3.63
2019-03-25T08:44:23.845Z,4.53
2019-03-25T08:46:55.427Z,3.43
2019-03-25T08:49:25.209Z,3.80
2019-03-25T08:51:55.323Z,3.40
2019-03-25T08:54:27.487Z,4.30
2019-03-25T08:56:57.787Z,3.60
2019-03-25T08:59:27.715Z,4.33
2019-03-25T09:01:57.494Z,3.50
2019-03-25T09:04:27.969Z,3.70
2019-03-25T09:06:57.748Z,3.93
2019-03-25T09:09:27.839Z,4.73
2019-03-25T09:11:57.617Z,4.27
2019-03-25T09:14:28.224Z,3.60
2019-03-25T09:17:00.658Z,3.80
2019-03-25T09:19:31.246Z,4.67
2019-03-25T09:22:01.284Z,4.83
2019-03-25T09:24:33.137Z,3.80
2019-03-25T09:27:05.374Z,3.87
2019-03-25T09:29:35.489Z,4.30
2019-03-25T09:32:05.658Z,3.93
2019-03-25T09:34:35.418Z,4.30
2019-03-25T09:37:05.845Z,4.00
2019-03-25T09:39:35.861Z,4.20
2019-03-25T09:42:05.628Z,4.17
2019-03-25T09:44:35.344Z,3.17
2019-03-25T09:47:05.120Z,3.80
2019-03-25T09:49:34.955Z,4.10
2019-03-25T09:52:07.735Z,3.33
2019-03-25T09:54:38.155Z,3.30
2019-03-25T09:57:07.948Z,2.47
2019-03-25T09:59:38.524Z,3.33
2019-03-25T10:02:09.215Z,3.30
2019-03-25T10:04:38.959Z,2.47
2019-03-25T10:07:12.229Z,2.57
2019-03-25T10:09:43.538Z,2.87
2019-03-25T10:12:16.596Z,3.10
2019-03-25T10:14:48.851Z,3.30
2019-03-25T10:17:21.432Z,3.00
2019-03-25T10:19:52.568Z,3.10
2019-03-25T10:22:23.672Z,2.77
2019-03-25T10:24:53.412Z,2.97
2019-03-25T10:27:23.516Z,2.93
2019-03-25T10:29:54.132Z,2.57
2019-03-25T10:32:25.307Z,2.80
2019-03-25T10:34:58.532Z,2.50
2019-03-25T10:37:29.922Z,2.40
2019-03-25T10:40:00.417Z,2.53
2019-03-25T10:42:30.678Z,2.10
2019-03-25T10:45:00.930Z,2.03
2019-03-25T10:47:41.799Z,2.13
2019-03-25T10:50:13.153Z,2.40
2019-03-25T10:52:47.817Z,0.93
2019-03-25T10:55:18.381Z,0.83
2019-03-25T10:57:52.306Z,1.00
2019-03-25T11:00:24.311Z,1.10
2019-03-25T11:02:56.149Z,1.10
2019-03-25T11:05:26.015Z,1.20
2019-03-25T11:07:56.124Z,1.37
2019-03-25T11:10:25.933Z,1.80
2019-03-25T11:12:55.998Z,1.60
2019-03-25T11:15:26.581Z,2.27
2019-03-25T11:17:56.303Z,1.87
2019-03-25T11:20:26.343Z,3.27
2019-03-25T11:22:58.938Z,2.10
2019-03-25T11:25:28.799Z,1.70
2019-03-25T11:27:58.540Z,2.00
2019-03-25T11:30:56.883Z,1.93
2019-03-25T11:33:29.138Z,1.60
2019-03-25T11:36:02.812Z,1.43
2019-03-25T11:38:33.463Z,1.70
2019-03-25T11:41:06.217Z,1.70
2019-03-25T11:43:36.497Z,1.80
2019-03-25T11:46:07.897Z,1.80
2019-03-25T11:48:38.467Z,1.73
2019-03-25T11:51:08.655Z,1.90
2019-03-25T11:53:38.368Z,1.50
2019-03-25T11:56:09.014Z,1.60
2019-03-25T11:58:39.158Z,1.30
2019-03-25T12:01:10.878Z,1.60
2019-03-25T12:03:40.949Z,1.47
2019-03-25T12:06:12.340Z,1.30
2019-03-25T12:08:43.283Z,0.73
2019-03-25T12:11:16.112Z,1.10
2019-03-25T12:13:45.893Z,0.97
2019-03-25T12:16:19.237Z,0.77
2019-03-25T12:18:49.253Z,0.83
2019-03-25T12:21:19.552Z,0.70
2019-03-25T12:23:54.838Z,0.70
2019-03-25T12:26:25.270Z,0.80
2019-03-25T12:28:56.535Z,1.00
2019-03-25T12:31:26.321Z,0.97
2019-03-25T12:33:56.898Z,1.10
2019-03-25T12:36:28.999Z,1.00
2019-03-25T12:38:59.058Z,1.00
2019-03-25T12:41:29.650Z,1.13
2019-03-25T12:44:00.638Z,1.13
2019-03-25T12:46:30.658Z,1.20
2019-03-25T12:49:00.737Z,1.10
2019-03-25T12:51:30.635Z,1.30
2019-03-25T12:54:00.614Z,0.90
2019-03-25T12:56:30.848Z,1.03
2019-03-25T12:59:00.974Z,1.00
2019-03-25T13:01:32.101Z,1.10
2019-03-25T13:04:13.425Z,1.00
2019-03-25T13:06:43.217Z,1.10
2019-03-25T13:09:15.070Z,1.10
2019-03-25T13:11:45.791Z,0.70
2019-03-25T13:14:16.027Z,0.80
2019-03-25T13:16:45.978Z,0.80
2019-03-25T13:19:17.124Z,0.70
2019-03-25T13:21:47.916Z,0.50
2019-03-25T13:24:18.632Z,0.50
2019-03-25T13:26:50.460Z,0.60
2019-03-25T13:29:21.390Z,0.70
2019-03-25T13:31:52.076Z,0.60
2019-03-25T13:34:23.178Z,0.90
2019-03-25T13:36:54.672Z,0.70
2019-03-25T13:39:24.820Z,0.77
2019-03-25T13:41:54.603Z,0.40
2019-03-25T13:44:24.416Z,0.80
2019-03-25T13:46:56.359Z,0.80
2019-03-25T13:49:28.303Z,1.17
2019-03-25T13:51:58.431Z,0.80
2019-03-25T13:54:30.000Z,1.00
2019-03-25T13:57:01.275Z,0.97
2019-03-25T13:59:31.439Z,0.90
2019-03-25T14:02:02.016Z,0.80
2019-03-25T14:04:31.761Z,0.63
2019-03-25T14:07:03.862Z,0.93
2019-03-25T14:09:33.576Z,0.83
2019-03-25T14:12:03.761Z,1.00
2019-03-25T14:14:34.119Z,0.90
2019-03-25T14:17:07.017Z,0.80
2019-03-25T14:19:36.791Z,1.07
2019-03-25T14:22:07.432Z,0.97
2019-03-25T14:24:37.182Z,0.90
2019-03-25T14:27:06.993Z,0.80
2019-03-25T14:29:37.180Z,0.90
2019-03-25T14:32:06.999Z,0.63
2019-03-25T14:34:44.755Z,0.60
2019-03-25T14:37:09.625Z,0.43
2019-03-25T14:39:39.385Z,0.83
2019-03-25T14:42:09.918Z,0.60
2019-03-25T14:44:40.434Z,0.60
2019-03-25T14:47:10.631Z,0.50
2019-03-25T14:49:40.429Z,0.60
2019-03-25T14:52:14.220Z,0.50
2019-03-25T14:57:39.033Z,0.40
2019-03-25T15:00:09.656Z,0.63
2019-03-25T15:02:40.948Z,0.80
2019-03-25T15:05:11.727Z,0.50
2019-03-25T15:07:41.650Z,0.67
2019-03-25T15:10:11.768Z,0.70
2019-03-25T15:12:42.153Z,0.90
2019-03-25T15:15:12.376Z,0.50
2019-03-25T15:17:42.961Z,0.73
2019-03-25T15:20:17.378Z,0.97
2019-03-25T15:22:47.122Z,0.90
2019-03-25T15:25:17.166Z,0.60
2019-03-25T15:27:47.547Z,0.83
2019-03-25T15:30:18.879Z,0.80
2019-03-25T15:32:50.507Z,1.13
2019-03-25T15:35:20.199Z,0.83
2019-03-25T15:37:49.937Z,0.83
2019-03-25T15:40:21.633Z,1.00
2019-03-25T15:42:51.749Z,0.87
2019-03-25T15:45:22.881Z,0.70
2019-03-25T15:47:52.666Z,0.50
2019-03-25T15:50:23.450Z,0.60
2019-03-25T15:52:53.557Z,0.73
2019-03-25T15:55:23.322Z,0.70
2019-03-25T15:57:53.061Z,0.70
2019-03-25T16:00:23.177Z,0.40
2019-03-25T16:02:52.910Z,0.50
2019-03-25T16:05:23.115Z,0.50
2019-03-25T16:07:52.864Z,0.80
2019-03-25T16:10:24.425Z,0.50
2019-03-25T16:12:54.185Z,0.50
2019-03-25T16:15:44.333Z,0.60
2019-03-25T16:18:43.026Z,0.30
2019-03-25T16:21:13.295Z,0.50
2019-03-25T16:23:44.497Z,0.63
2019-03-25T16:26:14.250Z,0.60
2019-03-25T16:28:46.455Z,0.60
2019-03-25T16:31:17.555Z,0.80
2019-03-25T16:33:53.860Z,0.80
2019-03-25T16:36:25.073Z,0.87
2019-03-25T16:38:54.848Z,0.70
2019-03-25T16:41:26.110Z,0.60
2019-03-25T16:43:56.885Z,0.70
2019-03-25T16:46:27.443Z,0.70
2019-03-25T16:48:58.766Z,0.50
2019-03-25T16:51:30.719Z,0.60
2019-03-25T16:54:01.525Z,0.63
2019-03-25T16:56:31.560Z,0.60
2019-03-25T16:59:05.891Z,0.40
2019-03-25T17:01:37.428Z,0.50
2019-03-25T17:04:08.085Z,0.50
2019-03-25T17:06:39.394Z,0.40
2019-03-25T17:09:09.319Z,0.80
2019-03-25T17:11:41.227Z,0.53
2019-03-25T17:14:10.996Z,0.50
2019-03-25T17:16:43.835Z,0.50
2019-03-25T17:19:13.848Z,0.50
2019-03-25T17:21:44.526Z,0.50
2019-03-25T17:24:14.651Z,0.50
2019-03-25T17:26:44.479Z,0.40
2019-03-25T17:29:14.453Z,0.60
2019-03-25T17:31:46.457Z,0.60
2019-03-25T17:34:18.903Z,0.40
2019-03-25T17:36:50.868Z,0.50
2019-03-25T17:39:25.491Z,0.50
2019-03-25T17:41:57.348Z,0.50
2019-03-25T17:44:27.481Z,0.70
2019-03-25T17:46:58.166Z,0.50
2019-03-25T17:49:28.336Z,0.60
2019-03-25T17:51:59.269Z,0.60
2019-03-25T17:54:29.341Z,0.50
2019-03-25T17:56:59.409Z,0.50
2019-03-25T17:59:29.438Z,0.60
2019-03-25T18:02:05.243Z,0.50
2019-03-25T18:04:36.822Z,0.50
2019-03-25T18:07:10.429Z,0.40
2019-03-25T18:09:41.099Z,0.60
2019-03-25T18:12:11.547Z,0.60
2019-03-25T18:14:41.642Z,0.50
2019-03-25T18:17:11.728Z,0.57
2019-03-25T18:19:42.623Z,0.70
2019-03-25T18:22:12.624Z,0.60
2019-03-25T18:24:43.795Z,0.60
2019-03-25T18:27:13.583Z,0.70
2019-03-25T18:29:45.987Z,0.70
2019-03-25T18:32:17.454Z,0.90
2019-03-25T18:34:47.792Z,0.60
2019-03-25T18:37:18.472Z,0.80
2019-03-25T18:39:49.475Z,0.80
2019-03-25T18:42:20.062Z,0.70
2019-03-25T18:44:50.830Z,0.50
2019-03-25T18:47:21.968Z,0.63
2019-03-25T18:49:51.718Z,0.80
2019-03-25T18:52:23.112Z,1.07
2019-03-25T18:54:53.168Z,0.90
2019-03-25T18:57:23.291Z,0.80
2019-03-25T18:59:54.478Z,0.70
2019-03-25T19:02:27.150Z,0.90
2019-03-25T19:04:59.088Z,0.83
2019-03-25T19:07:28.804Z,0.90
2019-03-25T19:09:58.521Z,0.73
2019-03-25T19:12:28.308Z,0.87
2019-03-25T19:14:58.091Z,0.90
2019-03-25T19:17:29.128Z,1.00
2019-03-25T19:19:58.843Z,0.80
2019-03-25T19:22:28.618Z,0.80
2019-03-25T19:24:59.986Z,0.90
2019-03-25T19:27:30.387Z,1.10
2019-03-25T19:30:01.892Z,1.00
2019-03-25T19:32:34.111Z,1.10
2019-03-25T19:35:04.135Z,1.30
2019-03-25T19:37:34.290Z,1.17
2019-03-25T19:40:04.855Z,1.03
2019-03-25T19:42:35.447Z,1.10
2019-03-25T19:45:05.218Z,1.17
2019-03-25T19:47:35.939Z,1.30
2019-03-25T19:50:08.929Z,1.07
2019-03-25T19:52:38.948Z,1.13
2019-03-25T19:55:09.073Z,1.50
2019-03-25T19:57:38.999Z,1.20
2019-03-25T20:00:09.851Z,1.23
2019-03-25T20:02:39.964Z,1.10
2019-03-25T20:05:10.227Z,1.33
2019-03-25T20:07:40.329Z,1.30
2019-03-25T20:10:16.798Z,1.60
2019-03-25T20:12:49.468Z,1.30
2019-03-25T20:15:19.171Z,1.60
2019-03-25T20:17:50.303Z,1.30
2019-03-25T20:20:21.166Z,1.23
2019-03-25T20:22:51.041Z,1.37
2019-03-25T20:25:20.725Z,1.60
2019-03-25T20:27:50.601Z,1.40
2019-03-25T20:30:20.446Z,1.60
2019-03-25T20:32:50.283Z,1.67
2019-03-25T20:35:20.665Z,1.73
2019-03-25T20:37:50.843Z,1.83
2019-03-25T20:40:20.642Z,2.83
2019-03-25T20:42:50.791Z,2.00
2019-03-25T20:45:23.361Z,1.90
2019-03-25T20:47:53.686Z,1.83
2019-03-25T20:50:25.457Z,1.73
2019-03-25T20:52:55.193Z,1.70
2019-03-25T20:55:24.927Z,2.00
2019-03-25T20:57:54.701Z,1.40
2019-03-25T21:00:47.830Z,1.37
2019-03-25T21:03:17.982Z,1.40
2019-03-25T21:05:47.755Z,1.80
2019-03-25T21:08:17.521Z,1.70
2019-03-25T21:10:47.272Z,1.53
2019-03-25T21:13:17.096Z,2.03
2019-03-25T21:15:46.904Z,2.00
2019-03-25T21:18:16.686Z,2.00
2019-03-25T21:20:46.512Z,1.90
2019-03-25T21:23:16.460Z,2.00
2019-03-25T21:25:49.045Z,2.13
2019-03-25T21:28:18.892Z,2.17
2019-03-25T21:30:51.764Z,2.20
2019-03-25T21:33:21.728Z,2.20
2019-03-25T21:35:51.467Z,2.50
2019-03-25T21:38:21.634Z,2.00
2019-03-25T21:40:51.690Z,2.30
2019-03-25T21:43:21.476Z,2.43
2019-03-25T21:45:51.724Z,2.60
2019-03-25T21:48:22.813Z,3.23
2019-03-25T21:50:53.239Z,2.30
2019-03-25T21:53:23.073Z,2.77
2019-03-25T21:55:53.221Z,3.00
2019-03-25T21:58:23.066Z,2.83
2019-03-25T22:00:52.821Z,2.80
2019-03-25T22:03:22.810Z,2.93
2019-03-25T22:05:52.545Z,2.60
2019-03-25T22:08:22.282Z,2.60
2019-03-25T22:10:52.030Z,3.10
2019-03-25T22:13:23.526Z,2.93
2019-03-25T22:15:56.128Z,2.80
2019-03-25T22:18:27.244Z,3.10
2019-03-25T22:20:56.999Z,3.43
2019-03-25T22:23:26.739Z,2.80
2019-03-25T22:25:56.551Z,3.07
2019-03-25T22:28:27.318Z,2.73
2019-03-25T22:30:57.506Z,2.67
2019-03-25T22:33:27.270Z,2.97
2019-03-25T22:35:58.428Z,3.17
2019-03-25T22:38:30.492Z,3.23
2019-03-25T22:41:03.763Z,3.07
2019-03-25T22:43:38.752Z,2.80
2019-03-25T22:46:09.026Z,3.10
2019-03-25T22:48:39.027Z,3.07
2019-03-25T22:51:10.578Z,2.70
2019-03-25T22:53:41.404Z,2.70
2019-03-25T22:56:11.762Z,2.63
2019-03-25T22:58:42.146Z,2.93
2019-03-25T23:01:12.071Z,3.03
2019-03-25T23:03:41.954Z,2.97
2019-03-25T23:06:11.768Z,3.17
2019-03-25T23:08:41.799Z,2.70
2019-03-25T23:11:11.664Z,2.77
2019-03-25T23:13:41.884Z,2.73
2019-03-25T23:16:11.939Z,2.60
2019-03-25T23:18:44.439Z,2.90
2019-03-25T23:21:21.798Z,3.17
2019-03-25T23:23:52.375Z,3.00
2019-03-25T23:26:22.115Z,2.57
2019-03-25T23:28:51.845Z,2.90
2019-03-25T23:31:22.599Z,2.93
2019-03-25T23:33:53.316Z,3.20
2019-03-25T23:36:24.101Z,2.87
2019-03-25T23:38:55.380Z,2.93
2019-03-25T23:41:25.150Z,2.87
2019-03-25T23:43:55.778Z,3.30
2019-03-25T23:46:26.079Z,3.60
2019-03-25T23:48:55.950Z,3.53
2019-03-25T23:51:27.540Z,3.30
2019-03-25T23:54:12.193Z,3.20
2019-03-25T23:56:42.667Z,2.70
2019-03-25T23:59:13.367Z,3.13
